createdAt,value
2022-11-24T00:00:31.413Z,98592.63
2022-11-24T00:02:58.182Z,98593.06
2022-11-24T00:05:24.671Z,98600.50
2022-11-24T00:07:51.155Z,98597.78
2022-11-24T00:10:17.652Z,98597.75
2022-11-24T00:12:44.038Z,98600.34
2022-11-24T00:15:10.679Z,98602.06
2022-11-24T00:17:37.058Z,98610.56
2022-11-24T00:20:03.692Z,98613.75
2022-11-24T00:22:30.712Z,98613.75
2022-11-24T00:24:57.104Z,98613.22
2022-11-24T00:27:23.479Z,98618.47
2022-11-24T00:29:49.891Z,98607.50
2022-11-24T00:32:16.243Z,98606.06
2022-11-24T00:34:42.611Z,98608.63
2022-11-24T00:37:09.018Z,98605.47
2022-11-24T00:39:35.404Z,98606.78
2022-11-24T00:42:02.005Z,98604.97
2022-11-24T00:44:28.398Z,98607.59
2022-11-24T00:46:54.854Z,98606.66
2022-11-24T00:49:21.309Z,98588.72
2022-11-24T00:51:47.796Z,98594.66
2022-11-24T00:54:14.263Z,98598.03
2022-11-24T00:56:40.703Z,98592.94
2022-11-24T00:59:07.284Z,98603.94
2022-11-24T01:01:34.031Z,98605.75
2022-11-24T01:04:03.760Z,98614.25
2022-11-24T01:06:30.755Z,98616.88
2022-11-24T01:08:57.570Z,98611.59
2022-11-24T01:11:30.084Z,98614.16
2022-11-24T01:13:58.884Z,98615.09
2022-11-24T01:16:29.181Z,98614.81
2022-11-24T01:18:55.972Z,98621.75
2022-11-24T01:21:22.731Z,98616.72
2022-11-24T01:23:49.193Z,98618.16
2022-11-24T01:26:18.597Z,98618.47
2022-11-24T01:28:47.567Z,98619.38
2022-11-24T01:31:14.719Z,98624.53
2022-11-24T01:33:41.243Z,98625.91
2022-11-24T01:36:07.696Z,98625.91
2022-11-24T01:38:34.156Z,98628.69
2022-11-24T01:41:06.787Z,98633.66
2022-11-24T01:43:33.607Z,98632.03
2022-11-24T01:46:15.125Z,98639.47
2022-11-24T01:48:44.684Z,98627.44
2022-11-24T01:51:13.867Z,98637.16
2022-11-24T01:53:42.199Z,98637.75
2022-11-24T01:56:08.923Z,98641.97
2022-11-24T01:58:36.210Z,98637.00
2022-11-24T02:01:02.881Z,98633.47
2022-11-24T02:03:34.547Z,98639.41
2022-11-24T02:06:13.125Z,98639.56
2022-11-24T02:08:47.171Z,98636.22
2022-11-24T02:11:13.604Z,98635.19
2022-11-24T02:13:41.142Z,98627.69
2022-11-24T02:16:08.753Z,98637.16
2022-11-24T02:18:37.010Z,98647.53
2022-11-24T02:21:03.526Z,98643.94
2022-11-24T02:23:45.085Z,98645.75
2022-11-24T02:26:19.576Z,98652.63
2022-11-24T02:28:46.240Z,98653.66
2022-11-24T02:31:12.948Z,98644.97
2022-11-24T02:33:39.722Z,98650.16
2022-11-24T02:36:06.479Z,98653.50
2022-11-24T02:38:34.500Z,98660.28
2022-11-24T02:41:09.216Z,98664.75
2022-11-24T02:43:39.799Z,98657.88
2022-11-24T02:46:06.816Z,98654.38
2022-11-24T02:48:33.533Z,98659.66
2022-11-24T02:50:59.927Z,98657.75
2022-11-24T02:53:26.300Z,98664.59
2022-11-24T02:55:53.184Z,98670.81
2022-11-24T02:58:19.612Z,98660.81
2022-11-24T03:00:46.081Z,98666.06
2022-11-24T03:03:12.648Z,98665.78
2022-11-24T03:05:39.132Z,98661.56
2022-11-24T03:08:05.639Z,98673.81
2022-11-24T03:10:32.313Z,98677.47
2022-11-24T03:12:58.710Z,98672.22
2022-11-24T03:15:25.133Z,98673.19
2022-11-24T03:17:54.475Z,98684.25
2022-11-24T03:20:20.946Z,98674.84
2022-11-24T03:22:47.354Z,98670.03
2022-11-24T03:25:13.755Z,98664.69
2022-11-24T03:27:40.163Z,98665.16
2022-11-24T03:30:07.577Z,98675.13
2022-11-24T03:32:34.021Z,98681.31
2022-11-24T03:35:00.386Z,98673.59
2022-11-24T03:37:26.790Z,98677.09
2022-11-24T03:39:53.181Z,98679.78
2022-11-24T03:42:19.560Z,98679.09
2022-11-24T03:44:45.928Z,98680.78
2022-11-24T03:47:12.502Z,98668.91
2022-11-24T03:49:39.039Z,98669.06
2022-11-24T03:52:08.190Z,98666.50
2022-11-24T03:54:35.471Z,98676.91
2022-11-24T03:57:02.085Z,98660.59
2022-11-24T03:59:28.454Z,98672.63
2022-11-24T04:01:55.034Z,98675.00
2022-11-24T04:04:21.448Z,98666.50
2022-11-24T04:06:47.826Z,98678.50
2022-11-24T04:09:14.280Z,98683.47
2022-11-24T04:12:06.843Z,98691.38
2022-11-24T04:14:33.481Z,98678.78
2022-11-24T04:17:00.117Z,98689.69
2022-11-24T04:19:26.634Z,98688.94
2022-11-24T04:21:53.095Z,98693.97
2022-11-24T04:24:19.453Z,98682.00
2022-11-24T04:26:45.823Z,98688.22
2022-11-24T04:29:12.261Z,98690.63
2022-11-24T04:31:38.722Z,98695.88
2022-11-24T04:34:05.158Z,98691.69
2022-11-24T04:36:31.594Z,98695.28
2022-11-24T04:39:23.333Z,98698.44
2022-11-24T04:41:44.406Z,98709.59
2022-11-24T04:44:10.775Z,98723.34
2022-11-24T04:46:37.174Z,98719.16
2022-11-24T04:49:03.603Z,98720.66
2022-11-24T04:51:29.989Z,98712.97
2022-11-24T04:53:56.428Z,98720.00
2022-11-24T04:56:23.082Z,98722.69
2022-11-24T04:58:49.760Z,98729.63
2022-11-24T05:01:16.278Z,98732.94
2022-11-24T05:03:42.740Z,98729.41
2022-11-24T05:06:09.124Z,98733.59
2022-11-24T05:08:35.646Z,98726.94
2022-11-24T05:11:06.233Z,98734.03
2022-11-24T05:13:32.931Z,98729.41
2022-11-24T05:16:00.196Z,98728.75
2022-11-24T05:18:26.678Z,98735.34
2022-11-24T05:20:53.041Z,98742.69
2022-11-24T05:23:19.436Z,98734.19
2022-11-24T05:25:47.734Z,98734.66
2022-11-24T05:28:14.491Z,98741.72
2022-11-24T05:30:42.012Z,98744.09
2022-11-24T05:33:12.537Z,98748.47
2022-11-24T05:35:38.931Z,98745.25
2022-11-24T05:38:05.303Z,98749.22
2022-11-24T05:40:31.749Z,98748.69
2022-11-24T05:42:58.208Z,98745.06
2022-11-24T05:45:24.701Z,98754.59
2022-11-24T05:47:51.511Z,98769.19
2022-11-24T05:50:20.181Z,98764.72
2022-11-24T05:52:46.987Z,98770.81
2022-11-24T05:55:19.342Z,98770.72
2022-11-24T05:57:45.795Z,98776.28
2022-11-24T06:00:13.189Z,98778.78
2022-11-24T06:02:39.783Z,98770.31
2022-11-24T06:05:06.477Z,98780.53
2022-11-24T06:07:32.940Z,98788.06
2022-11-24T06:09:59.417Z,98780.06
2022-11-24T06:12:25.835Z,98782.78
2022-11-24T06:14:52.447Z,98781.25
2022-11-24T06:17:19.022Z,98787.09
2022-11-24T06:19:47.852Z,98786.16
2022-11-24T06:22:14.359Z,98782.13
2022-11-24T06:24:40.802Z,98789.75
2022-11-24T06:27:07.672Z,98794.13
2022-11-24T06:29:34.104Z,98789.78
2022-11-24T06:32:00.607Z,98793.97
2022-11-24T06:34:27.077Z,98801.94
2022-11-24T06:36:53.451Z,98813.84
2022-11-24T06:39:19.834Z,98816.34
2022-11-24T06:41:46.289Z,98818.91
2022-11-24T06:44:12.696Z,98825.84
2022-11-24T06:46:39.128Z,98819.84
2022-11-24T06:49:05.654Z,98821.59
2022-11-24T06:51:32.046Z,98823.94
2022-11-24T06:53:58.492Z,98830.06
2022-11-24T06:56:25.158Z,98829.97
2022-11-24T06:58:53.146Z,98829.94
2022-11-24T07:01:22.002Z,98828.44
2022-11-24T07:03:49.243Z,98832.41
2022-11-24T07:06:16.260Z,98830.06
2022-11-24T07:08:42.846Z,98830.97
2022-11-24T07:11:11.568Z,98826.56
2022-11-24T07:13:38.040Z,98833.56
2022-11-24T07:16:31.211Z,98841.91
2022-11-24T07:18:58.312Z,98848.06
2022-11-24T07:21:25.997Z,98855.75
2022-11-24T07:23:54.195Z,98867.69
2022-11-24T07:26:21.218Z,98866.19
2022-11-24T07:28:47.852Z,98884.91
2022-11-24T07:31:17.234Z,98882.41
2022-11-24T07:33:43.738Z,98888.50
2022-11-24T07:36:10.118Z,98897.03
2022-11-24T07:38:36.791Z,98890.97
2022-11-24T07:41:05.999Z,98897.25
2022-11-24T07:43:33.456Z,98899.03
2022-11-24T07:46:00.218Z,98903.25
2022-11-24T07:48:26.979Z,98923.72
2022-11-24T07:50:56.036Z,98916.50
2022-11-24T07:53:22.867Z,98923.22
2022-11-24T07:55:56.780Z,98926.44
2022-11-24T07:58:24.769Z,98932.66
2022-11-24T08:00:54.050Z,98939.31
2022-11-24T08:03:20.635Z,98946.91
2022-11-24T08:08:43.743Z,98948.53
2022-11-24T08:11:15.629Z,98958.03
2022-11-24T08:13:42.514Z,98963.00
2022-11-24T08:16:13.836Z,98957.69
2022-11-24T08:18:41.185Z,98960.09
2022-11-24T08:21:12.323Z,98964.63
2022-11-24T08:23:38.907Z,98973.28
2022-11-24T08:26:10.925Z,98981.00
2022-11-24T08:28:38.108Z,98992.91
2022-11-24T08:31:06.687Z,98987.00
2022-11-24T08:33:33.125Z,98997.25
2022-11-24T08:36:04.522Z,98984.75
2022-11-24T08:38:30.963Z,98995.88
2022-11-24T08:41:09.710Z,99002.66
2022-11-24T08:43:36.679Z,98994.03
2022-11-24T08:46:06.173Z,99006.19
2022-11-24T08:48:33.296Z,99000.97
2022-11-24T08:50:59.848Z,99004.28
2022-11-24T08:53:26.341Z,99017.88
2022-11-24T08:55:52.805Z,99019.63
2022-11-24T08:58:21.955Z,99025.78
2022-11-24T09:00:49.887Z,99024.91
2022-11-24T09:03:16.389Z,99020.56
2022-11-24T09:05:51.713Z,99030.25
2022-11-24T09:08:18.919Z,99032.09
2022-11-24T09:10:45.647Z,99043.22
2022-11-24T09:13:12.181Z,99037.22
2022-11-24T09:15:38.596Z,99045.94
2022-11-24T09:18:05.442Z,99044.81
2022-11-24T09:20:31.904Z,99052.72
2022-11-24T09:22:58.340Z,99051.94
2022-11-24T09:25:24.764Z,99062.31
2022-11-24T09:27:51.232Z,99058.97
2022-11-24T09:30:17.934Z,99064.88
2022-11-24T09:32:44.341Z,99066.66
2022-11-24T09:35:10.760Z,99068.53
2022-11-24T09:37:37.271Z,99072.06
2022-11-24T09:40:04.028Z,99078.97
2022-11-24T09:42:41.247Z,99079.59
2022-11-24T09:45:13.820Z,99079.59
2022-11-24T09:47:52.266Z,99084.94
2022-11-24T09:50:24.872Z,99094.31
2022-11-24T09:53:03.677Z,99098.63
2022-11-24T09:55:38.409Z,99096.94
2022-11-24T09:58:35.700Z,99098.97
2022-11-24T10:01:05.781Z,99103.25
2022-11-24T10:03:34.677Z,99102.38
2022-11-24T10:06:04.370Z,99106.63
2022-11-24T10:08:43.172Z,99098.28
2022-11-24T10:11:15.714Z,99099.09
2022-11-24T10:14:02.909Z,99101.81
2022-11-24T10:16:35.377Z,99110.59
2022-11-24T10:19:14.312Z,99115.16
2022-11-24T10:22:06.963Z,99120.28
2022-11-24T10:25:01.324Z,99122.19
2022-11-24T10:27:37.980Z,99119.25
2022-11-24T10:30:12.935Z,99122.91
2022-11-24T10:32:43.065Z,99126.34
2022-11-24T10:35:21.618Z,99125.56
2022-11-24T10:38:26.631Z,99133.47
2022-11-24T10:41:03.276Z,99135.06
2022-11-24T10:43:29.823Z,99128.34
2022-11-24T10:46:16.777Z,99123.53
2022-11-24T10:48:51.060Z,99132.16
2022-11-24T10:51:36.896Z,99133.94
2022-11-24T10:54:26.900Z,99132.44
2022-11-24T10:56:54.299Z,99142.00
2022-11-24T10:59:35.928Z,99143.03
2022-11-24T11:02:04.017Z,99139.28
2022-11-24T11:04:31.669Z,99129.69
2022-11-24T11:07:13.778Z,99137.91
2022-11-24T11:09:40.256Z,99140.47
2022-11-24T11:12:42.040Z,99130.41
2022-11-24T11:15:21.207Z,99131.44
2022-11-24T11:17:50.391Z,99133.22
2022-11-24T11:20:19.631Z,99136.91
2022-11-24T11:22:48.110Z,99140.84
2022-11-24T11:25:17.929Z,99135.28
2022-11-24T11:27:44.324Z,99137.72
2022-11-24T11:35:51.173Z,99138.00
2022-11-24T11:38:17.788Z,99148.47
2022-11-24T11:40:44.340Z,99152.72
2022-11-24T11:43:28.948Z,99149.28
2022-11-24T11:46:02.204Z,99152.59
2022-11-24T11:48:40.820Z,99156.88
2022-11-24T11:51:28.086Z,99145.75
2022-11-24T11:54:27.008Z,99145.59
2022-11-24T11:57:30.691Z,99146.63
2022-11-24T12:00:12.688Z,99149.19
2022-11-24T12:02:46.105Z,99149.19
2022-11-24T12:05:30.480Z,99141.31
2022-11-24T12:08:23.507Z,99138.00
2022-11-24T12:11:09.626Z,99134.69
2022-11-24T12:13:48.151Z,99137.91
2022-11-24T12:16:45.591Z,99138.19
2022-11-24T12:19:24.056Z,99137.25
2022-11-24T12:21:53.468Z,99147.00
2022-11-24T12:24:50.560Z,99144.81
2022-11-24T12:27:32.184Z,99158.72
2022-11-24T12:30:04.484Z,99145.09
2022-11-24T12:33:12.235Z,99143.03
2022-11-24T12:35:45.683Z,99144.84
2022-11-24T12:38:41.010Z,99145.94
2022-11-24T12:41:41.794Z,99143.31
2022-11-24T12:44:31.000Z,99135.41
2022-11-24T12:47:10.028Z,99136.88
2022-11-24T12:49:47.250Z,99139.22
2022-11-24T12:52:24.372Z,99135.53
2022-11-24T12:54:50.836Z,99135.72
2022-11-24T12:57:30.847Z,99133.66
2022-11-24T13:00:08.439Z,99134.75
2022-11-24T13:02:47.057Z,99142.72
2022-11-24T13:05:28.026Z,99137.44
2022-11-24T13:08:03.553Z,99141.66
2022-11-24T13:13:28.987Z,99134.63
2022-11-24T13:18:57.287Z,99134.06
2022-11-24T13:21:42.879Z,99132.69
2022-11-24T13:24:19.267Z,99127.97
2022-11-24T13:26:49.006Z,99129.19
2022-11-24T13:29:27.827Z,99128.91
2022-11-24T13:31:55.489Z,99127.44
2022-11-24T13:34:40.276Z,99130.69
2022-11-24T13:37:26.833Z,99130.03
2022-11-24T13:40:23.225Z,99131.44
2022-11-24T13:43:12.842Z,99125.84
2022-11-24T13:45:39.247Z,99128.38
2022-11-24T13:48:21.650Z,99124.25
2022-11-24T13:50:50.607Z,99122.28
2022-11-24T13:53:35.575Z,99118.16
2022-11-24T13:56:14.922Z,99115.94
2022-11-24T13:58:44.196Z,99116.75
2022-11-24T14:01:13.579Z,99113.09
2022-11-24T14:06:51.303Z,99109.22
2022-11-24T14:09:43.672Z,99105.41
2022-11-24T14:12:14.187Z,99103.06
2022-11-24T14:14:41.465Z,99106.50
2022-11-24T14:17:15.630Z,99108.13
2022-11-24T14:19:47.242Z,99108.94
2022-11-24T14:22:26.904Z,99107.94
2022-11-24T14:24:57.842Z,99103.69
2022-11-24T14:27:30.625Z,99111.69
2022-11-24T14:30:21.062Z,99104.16
2022-11-24T14:32:58.075Z,99100.00
2022-11-24T14:35:29.187Z,99090.56
2022-11-24T14:37:55.943Z,99095.44
2022-11-24T14:40:38.722Z,99090.34
2022-11-24T14:43:29.978Z,99096.78
2022-11-24T14:46:00.377Z,99094.88
2022-11-24T14:48:50.646Z,99098.38
2022-11-24T14:51:24.127Z,99099.09
2022-11-24T14:53:56.786Z,99099.63
2022-11-24T14:56:26.233Z,99110.81
2022-11-24T14:58:54.134Z,99102.09
2022-11-24T15:01:22.346Z,99096.03
2022-11-24T15:04:13.056Z,99096.09
2022-11-24T15:06:49.732Z,99092.44
2022-11-24T15:09:30.556Z,99093.91
2022-11-24T15:11:57.398Z,99100.81
2022-11-24T15:14:36.246Z,99101.41
2022-11-24T15:17:02.957Z,99101.34
2022-11-24T15:19:32.903Z,99107.34
2022-11-24T15:21:59.523Z,99107.94
2022-11-24T15:24:26.018Z,99113.59
2022-11-24T15:27:00.114Z,99110.16
2022-11-24T15:29:26.723Z,99105.53
2022-11-24T15:31:53.303Z,99108.97
2022-11-24T15:34:19.842Z,99115.47
2022-11-24T15:36:46.259Z,99110.94
2022-11-24T15:39:12.797Z,99115.66
2022-11-24T15:41:40.520Z,99119.75
2022-11-24T15:44:07.800Z,99125.09
2022-11-24T15:46:38.057Z,99133.16
2022-11-24T15:49:05.141Z,99130.44
2022-11-24T15:51:31.594Z,99126.03
2022-11-24T15:54:01.165Z,99125.16
2022-11-24T15:56:33.272Z,99126.78
2022-11-24T15:59:01.031Z,99135.00
2022-11-24T16:01:32.932Z,99126.31
2022-11-24T16:04:08.606Z,99127.66
2022-11-24T16:06:35.030Z,99127.31
2022-11-24T16:09:01.643Z,99130.97
2022-11-24T16:11:28.068Z,99132.00
2022-11-24T16:13:57.291Z,99142.38
2022-11-24T16:16:25.154Z,99139.00
2022-11-24T16:18:51.691Z,99144.88
2022-11-24T16:21:18.149Z,99150.16
2022-11-24T16:23:45.553Z,99153.84
2022-11-24T16:26:12.140Z,99152.31
2022-11-24T16:28:38.708Z,99149.69
2022-11-24T16:31:05.215Z,99146.97
2022-11-24T16:33:31.726Z,99147.16
2022-11-24T16:35:58.574Z,99140.78
2022-11-24T16:38:24.983Z,99148.09
2022-11-24T16:40:56.190Z,99148.72
2022-11-24T16:43:22.647Z,99146.38
2022-11-24T16:46:15.569Z,99145.00
2022-11-24T16:48:42.043Z,99147.81
2022-11-24T16:51:11.929Z,99151.00
2022-11-24T16:53:39.218Z,99149.59
2022-11-24T16:56:06.394Z,99148.00
2022-11-24T16:58:32.807Z,99147.84
2022-11-24T17:01:04.300Z,99148.91
2022-11-24T17:03:33.404Z,99149.50
2022-11-24T17:06:00.783Z,99151.41
2022-11-24T17:08:30.641Z,99153.53
2022-11-24T17:10:57.046Z,99150.00
2022-11-24T17:13:24.162Z,99148.09
2022-11-24T17:15:54.169Z,99150.38
2022-11-24T17:18:25.406Z,99153.94
2022-11-24T17:20:52.273Z,99149.25
2022-11-24T17:23:19.628Z,99156.72
2022-11-24T17:25:46.197Z,99159.38
2022-11-24T17:28:12.679Z,99151.81
2022-11-24T17:30:39.081Z,99159.03
2022-11-24T17:33:05.754Z,99159.22
2022-11-24T17:35:34.111Z,99157.66
2022-11-24T17:38:01.187Z,99160.44
2022-11-24T17:40:29.276Z,99153.91
2022-11-24T17:43:00.235Z,99149.38
2022-11-24T17:45:27.947Z,99149.16
2022-11-24T17:47:54.959Z,99152.25
2022-11-24T17:50:25.668Z,99152.34
2022-11-24T17:52:53.170Z,99142.47
2022-11-24T17:55:19.576Z,99143.50
2022-11-24T17:57:46.119Z,99143.34
2022-11-24T18:00:13.209Z,99150.75
2022-11-24T18:02:39.681Z,99152.34
2022-11-24T18:05:06.375Z,99151.59
2022-11-24T18:07:35.293Z,99146.13
2022-11-24T18:10:01.717Z,99144.53
2022-11-24T18:12:28.108Z,99136.78
2022-11-24T18:14:54.509Z,99124.63
2022-11-24T18:17:20.891Z,99131.03
2022-11-24T18:19:47.339Z,99132.75
2022-11-24T18:22:13.711Z,99131.66
2022-11-24T18:24:40.472Z,99136.47
2022-11-24T18:27:07.015Z,99128.84
2022-11-24T18:29:33.423Z,99139.41
2022-11-24T18:32:00.248Z,99146.91
2022-11-24T18:34:27.059Z,99146.59
2022-11-24T18:36:53.473Z,99139.50
2022-11-24T18:39:22.013Z,99140.03
2022-11-24T18:41:48.448Z,99149.13
2022-11-24T18:44:14.899Z,99151.66
2022-11-24T18:46:41.372Z,99153.16
2022-11-24T18:49:07.894Z,99153.84
2022-11-24T18:51:34.356Z,99152.47
2022-11-24T18:54:02.850Z,99154.25
2022-11-24T18:56:29.440Z,99156.28
2022-11-24T18:58:56.357Z,99151.22
2022-11-24T19:01:27.809Z,99159.31
2022-11-24T19:03:56.222Z,99154.75
2022-11-24T19:06:24.354Z,99154.25
2022-11-24T19:08:53.328Z,99157.19
2022-11-24T19:11:21.554Z,99159.75
2022-11-24T19:13:48.987Z,99158.47
2022-11-24T19:16:16.995Z,99162.09
2022-11-24T19:18:46.474Z,99161.34
2022-11-24T19:21:17.692Z,99165.53
2022-11-24T19:23:44.125Z,99160.53
2022-11-24T19:26:10.634Z,99165.84
2022-11-24T19:28:37.066Z,99175.16
2022-11-24T19:31:06.021Z,99166.25
2022-11-24T19:33:33.026Z,99167.78
2022-11-24T19:36:04.784Z,99167.91
2022-11-24T19:38:33.071Z,99162.69
2022-11-24T19:41:04.015Z,99157.78
2022-11-24T19:43:30.840Z,99160.34
2022-11-24T19:46:05.647Z,99158.81
2022-11-24T19:48:33.136Z,99157.53
2022-11-24T19:51:04.851Z,99164.09
2022-11-24T19:53:31.984Z,99162.69
2022-11-24T19:56:05.177Z,99160.03
2022-11-24T19:58:31.963Z,99157.03
2022-11-24T20:01:24.656Z,99165.63
2022-11-24T20:03:59.032Z,99156.94
2022-11-24T20:06:26.980Z,99160.91
2022-11-24T20:08:53.411Z,99159.75
2022-11-24T20:11:20.941Z,99160.72
2022-11-24T20:13:48.369Z,99159.56
2022-11-24T20:16:20.873Z,99171.50
2022-11-24T20:18:47.791Z,99175.00
2022-11-24T20:21:21.905Z,99172.00
2022-11-24T20:23:56.890Z,99169.72
2022-11-24T20:26:24.708Z,99173.34
2022-11-24T20:28:53.074Z,99177.16
2022-11-24T20:31:22.324Z,99171.09
2022-11-24T20:33:49.032Z,99171.50
2022-11-24T20:36:18.276Z,99164.25
2022-11-24T20:38:45.622Z,99168.25
2022-11-24T20:41:23.681Z,99170.78
2022-11-24T20:43:51.229Z,99161.94
2022-11-24T20:46:20.146Z,99162.44
2022-11-24T20:48:46.560Z,99154.59
2022-11-24T20:51:15.796Z,99149.03
2022-11-24T20:53:42.271Z,99162.56
2022-11-24T20:56:11.704Z,99152.66
2022-11-24T20:58:38.617Z,99147.00
2022-11-24T21:01:13.946Z,99156.78
2022-11-24T21:03:43.344Z,99154.50
2022-11-24T21:06:10.868Z,99154.69
2022-11-24T21:08:39.116Z,99157.16
2022-11-24T21:11:07.057Z,99157.72
2022-11-24T21:13:34.602Z,99156.56
2022-11-24T21:16:10.514Z,99156.75
2022-11-24T21:18:36.943Z,99149.50
2022-11-24T21:21:03.418Z,99147.34
2022-11-24T21:23:29.844Z,99156.28
2022-11-24T21:26:05.121Z,99156.94
2022-11-24T21:28:32.855Z,99158.03
2022-11-24T21:31:04.765Z,99164.66
2022-11-24T21:33:31.267Z,99161.47
2022-11-24T21:36:05.439Z,99163.53
2022-11-24T21:38:32.234Z,99163.22
2022-11-24T21:41:08.833Z,99161.94
2022-11-24T21:43:35.830Z,99162.84
2022-11-24T21:46:02.933Z,99158.25
2022-11-24T21:48:30.730Z,99157.94
2022-11-24T21:51:02.684Z,99154.13
2022-11-24T21:53:34.679Z,99153.94
2022-11-24T21:56:03.422Z,99150.22
2022-11-24T21:58:29.846Z,99139.72
2022-11-24T22:01:02.906Z,99143.03
2022-11-24T22:03:29.469Z,99132.28
2022-11-24T22:05:57.190Z,99136.31
2022-11-24T22:08:24.536Z,99134.84
2022-11-24T22:10:51.206Z,99134.75
2022-11-24T22:13:17.629Z,99140.94
2022-11-24T22:15:44.068Z,99136.81
2022-11-24T22:18:10.620Z,99145.66
2022-11-24T22:20:37.085Z,99141.25
2022-11-24T22:23:03.606Z,99149.16
2022-11-24T22:25:30.033Z,99155.63
2022-11-24T22:27:57.915Z,99145.84
2022-11-24T22:30:24.352Z,99151.50
2022-11-24T22:32:54.083Z,99150.25
2022-11-24T22:35:20.857Z,99152.91
2022-11-24T22:37:47.273Z,99141.91
2022-11-24T22:40:13.682Z,99149.94
2022-11-24T22:42:40.087Z,99142.41
2022-11-24T22:45:07.282Z,99143.28
2022-11-24T22:47:36.535Z,99141.13
2022-11-24T22:50:03.100Z,99140.94
2022-11-24T22:52:29.523Z,99140.16
2022-11-24T22:54:55.958Z,99131.25
2022-11-24T22:57:22.328Z,99146.22
2022-11-24T22:59:48.791Z,99140.81
2022-11-24T23:02:15.174Z,99139.16
2022-11-24T23:04:41.607Z,99140.66
2022-11-24T23:07:08.182Z,99138.00
2022-11-24T23:09:34.612Z,99142.72
2022-11-24T23:12:01.051Z,99140.25
2022-11-24T23:14:28.772Z,99140.06
2022-11-24T23:16:55.261Z,99143.59
2022-11-24T23:19:21.638Z,99144.94
2022-11-24T23:21:48.244Z,99144.06
2022-11-24T23:24:14.636Z,99141.13
2022-11-24T23:26:41.531Z,99139.59
2022-11-24T23:29:08.432Z,99144.44
2022-11-24T23:31:37.703Z,99137.31
2022-11-24T23:34:04.449Z,99137.81
2022-11-24T23:36:31.362Z,99137.22
2022-11-24T23:39:03.067Z,99133.59
2022-11-24T23:41:30.118Z,99128.50
2022-11-24T23:43:56.510Z,99127.94
2022-11-24T23:46:27.217Z,99120.19
2022-11-24T23:48:54.518Z,99125.84
2022-11-24T23:51:26.737Z,99123.31
2022-11-24T23:53:54.036Z,99123.03
2022-11-24T23:56:22.558Z,99133.88
2022-11-24T23:58:49.300Z,99126.53
